FNHU/NOV METAR and TAF weather

Enter ICAO airport designator
Station Type Date Time Source
FNHU METAR 2021/09/16 15:00 UTC NOAA

FNHU 161500Z 15005KT CAVOK 31/04 Q1019


Station Type Date Time Source
FNHU Decoded METAR 2021/09/16 15:00 UTC NOAA

Huambo Nova Lisboa , Angola (FNHU) 12-48S 015-45E 1701M
Sep 16, 2021 - 11:00 AM EDT / 2021.09.16 1500 UTC
Wind: from the SSE (150 degrees) at 6 MPH (5 KT):0
Visibility: greater than 7 mile(s):0
Temperature: 87 F (31 C)
Dew Point: 39 F (4 C)
Relative Humidity: 18%
Pressure (altimeter): 30.09 in. Hg (1019 hPa)
ob: FNHU 161500Z 15005KT CAVOK 31/04 Q1019
cycle: 15

Station Type Date Time Source
FNHU TAF 2021/09/16 12:55 UTC NOAA

TAF FNHU 161055Z 1612/1624 13005KT CAVOK
TEMPO 1614/1618 VRB02KT 9999 SCT030
BECMG 1621/1623 26007KT 7000 NSC

Example: see airport list